TimeWET,TemperatureF,Dew PointF,Humidity,Sea Level PressureIn,VisibilityMPH,Wind Direction,Wind SpeedMPH,Gust SpeedMPH,PrecipitationIn,Events,Conditions,WindDirDegrees,DateUTC
12:00 AM,67,59,69,30.04,5,SW,9.2,,,Thunderstorm,Thunderstorm,230,2012-11-06 00:00:00
12:00 AM,66.2,59.0,78,30.06,6.2,SSW,10.4,-,N/A,,Mostly Cloudy,210,2012-11-06 00:00:00
12:30 AM,68.0,62.6,83,30.06,6.2,SSW,11.5,-,N/A,,Mostly Cloudy,210,2012-11-06 00:30:00
1:00 AM,68.0,60.8,78,30.06,6.2,SSW,16.1,-,N/A,,Mostly Cloudy,200,2012-11-06 01:00:00
2:00 AM,69.8,59.0,68,30.04,6.2,SW,11.5,-,N/A,,Mostly Cloudy,220,2012-11-06 02:00:00
3:00 AM,70,57,55,29.98,5,SW,15.0,,,,Partly Cloudy,220,2012-11-06 03:00:00
3:00 AM,69.8,57.2,64,30.04,6.2,SW,15.0,-,N/A,,Mostly Cloudy,220,2012-11-06 03:00:00
4:00 AM,66.2,60.8,83,30.06,6.2,NNW,6.9,-,N/A,Rain,Light Rain,330,2012-11-06 04:00:00
5:00 AM,68.0,57.2,68,30.04,6.2,South,4.6,-,N/A,,Mostly Cloudy,190,2012-11-06 05:00:00
6:00 AM,70,55,50,29.98,5,SSW,16.1,,,,Partly Cloudy,210,2012-11-06 06:00:00
6:00 AM,69.8,55.4,60,30.04,6.2,SSW,16.1,-,N/A,,Mostly Cloudy,210,2012-11-06 06:00:00
7:00 AM,69.8,55.4,60,30.01,6.2,SW,12.7,-,N/A,,Mostly Cloudy,230,2012-11-06 07:00:00
8:00 AM,69.8,57.2,64,30.04,6.2,NW,4.6,-,N/A,,Mostly Cloudy,310,2012-11-06 08:00:00
9:00 AM,70,59,59,30.00,5,NNE,2.3,,,,Partly Cloudy,30,2012-11-06 09:00:00
9:00 AM,68.0,59.0,73,30.04,6.2,ENE,4.6,-,N/A,,Mostly Cloudy,60,2012-11-06 09:00:00
10:00 AM,73.4,59.0,61,30.04,6.2,Variable,8.1,-,N/A,,Mostly Cloudy,0,2012-11-06 10:00:00
11:00 AM,73.4,60.8,65,30.06,6.2,ENE,5.8,-,N/A,,Mostly Cloudy,70,2012-11-06 11:00:00
12:00 PM,76,60,47,29.97,6,ENE,6.9,,,,Partly Cloudy,60,2012-11-06 12:00:00
12:00 PM,75.2,60.8,61,30.04,6.2,ENE,6.9,-,N/A,,Mostly Cloudy,60,2012-11-06 12:00:00
1:00 PM,77.0,60.8,57,30.01,6.2,ENE,5.8,-,N/A,,Mostly Cloudy,70,2012-11-06 13:00:00
2:00 PM,78.8,62.6,57,30.01,6.2,Variable,4.6,-,N/A,,Mostly Cloudy,0,2012-11-06 14:00:00
3:00 PM,76,64,57,29.94,5,NE,5.8,,,,Partly Cloudy,50,2012-11-06 15:00:00
3:00 PM,75.2,64.4,69,30.01,6.2,NE,5.8,-,N/A,,Scattered Clouds,50,2012-11-06 15:00:00
4:00 PM,75.2,64.4,69,30.01,6.2,NE,5.8,-,N/A,,Scattered Clouds,40,2012-11-06 16:00:00
5:00 PM,71.6,64.4,78,30.04,6.2,Variable,3.5,-,N/A,,Mostly Cloudy,0,2012-11-06 17:00:00
6:00 PM,69,64,79,30.00,5,NW,6.9,,,,Partly Cloudy,310,2012-11-06 18:00:00
6:00 PM,69.8,64.4,83,30.04,1.7,NW,6.9,-,N/A,,Mostly Cloudy,310,2012-11-06 18:00:00
6:05 PM,69.8,62.6,78,30.04,6.2,WNW,6.9,-,N/A,Thunderstorm,Light Thunderstorm,300,2012-11-06 18:05:00
7:00 PM,68.0,64.4,88,30.04,6.2,South,6.9,-,N/A,,Mostly Cloudy,180,2012-11-06 19:00:00
7:49 PM,66.2,64.4,94,30.04,6.2,ESE,2.3,-,N/A,,Scattered Clouds,120,2012-11-06 19:49:00
8:00 PM,68.0,60.8,78,30.04,6.2,Variable,3.5,-,N/A,,Scattered Clouds,0,2012-11-06 20:00:00
9:00 PM,67,60,70,29.99,6,NE,2.3,,,,Partly Cloudy,50,2012-11-06 21:00:00
9:00 PM,66.2,59.0,78,30.01,6.2,Variable,2.3,-,N/A,,Mostly Cloudy,0,2012-11-06 21:00:00
10:00 PM,66.2,62.6,88,30.01,6.2,NE,4.6,-,N/A,,Mostly Cloudy,40,2012-11-06 22:00:00
11:00 PM,64.4,59.0,83,30.04,6.2,WNW,6.9,-,N/A,,Mostly Cloudy,300,2012-11-06 23:00:00